Time;durP1;ratioP1;P1;durP2;ratioP2;P2;SDS_P1;SDS_P2;PMS_P1;PMS_P2;Temp;Humidity;BMP_temperature;BMP_pressure;BME280_temperature;BME280_humidity;BME280_pressure;Samples;Min_cycle;Max_cycle;Signal;HPM_P1;HPM_P2
2021/10/23 00:02:19;;;;;;;21.02;10.90;;;;;;;11.16;49.00;99993.90;1829513;78;21595;-73
2021/10/23 00:04:48;;;;;;;14.58;7.00;;;;;;;11.16;49.21;99988.41;1829720;78;21098;-74
2021/10/23 00:07:17;;;;;;;18.95;8.80;;;;;;;11.14;48.77;99985.04;1829571;78;21110;-74
2021/10/23 00:09:45;;;;;;;13.65;6.62;;;;;;;11.13;48.82;99992.95;1829199;78;21196;-73
2021/10/23 00:12:16;;;;;;;16.02;6.40;;;;;;;11.11;48.43;99983.03;1829625;78;21098;-75
2021/10/23 00:14:44;;;;;;;13.10;6.55;;;;;;;11.11;48.39;99983.56;1829528;78;21229;-74
2021/10/23 00:17:12;;;;;;;11.18;4.90;;;;;;;11.13;48.16;99979.24;1829033;78;21566;-75
2021/10/23 00:19:43;;;;;;;11.28;4.22;;;;;;;11.14;47.67;99972.70;1829588;78;21118;-77
2021/10/23 00:22:11;;;;;;;8.50;4.33;;;;;;;11.14;46.64;99968.06;1829603;78;21594;-74
2021/10/23 00:24:40;;;;;;;11.53;4.08;;;;;;;11.14;46.54;99958.99;1829494;78;21137;-72
2021/10/23 00:27:08;;;;;;;8.73;3.60;;;;;;;11.15;46.52;99966.16;1829583;78;21118;-74
2021/10/23 00:29:39;;;;;;;12.45;5.03;;;;;;;11.13;46.39;99959.52;1829561;78;21153;-73
2021/10/23 00:32:08;;;;;;;13.20;4.75;;;;;;;11.14;46.77;99964.48;1829577;78;21902;-74
2021/10/23 00:34:37;;;;;;;12.35;4.47;;;;;;;11.14;46.80;99960.36;1829451;78;21571;-73
2021/10/23 00:37:05;;;;;;;9.88;4.60;;;;;;;11.15;46.75;99956.04;1829529;78;21260;-73
2021/10/23 00:39:34;;;;;;;10.30;4.58;;;;;;;11.12;46.84;99950.98;1829763;78;21553;-75
2021/10/23 00:42:03;;;;;;;18.12;5.50;;;;;;;11.11;46.67;99958.36;1829533;78;21211;-73
2021/10/23 00:44:37;;;;;;;18.87;6.87;;;;;;;11.11;46.85;99961.63;1829609;78;21137;-72
2021/10/23 00:47:08;;;;;;;14.83;6.37;;;;;;;11.02;47.68;99956.86;1829505;78;21113;-73
2021/10/23 00:49:37;;;;;;;14.70;6.40;;;;;;;10.97;47.91;99955.28;1829867;78;21153;-74
2021/10/23 00:52:07;;;;;;;14.33;6.87;;;;;;;10.95;47.46;99958.76;1829379;78;21153;-74
2021/10/23 00:54:38;;;;;;;15.32;8.20;;;;;;;10.91;48.03;99964.88;1829587;78;21121;-73
2021/10/23 00:57:07;;;;;;;26.10;14.28;;;;;;;10.83;47.85;99970.03;1829641;78;21106;-74
2021/10/23 00:59:35;;;;;;;24.72;14.05;;;;;;;10.79;47.99;99972.88;1829541;78;21169;-72
2021/10/23 01:02:04;;;;;;;29.85;15.70;;;;;;;10.74;48.26;99969.92;1829664;78;21537;-73
2021/10/23 01:04:34;;;;;;;19.67;9.30;;;;;;;10.69;48.44;99971.92;1829627;78;21098;-73
2021/10/23 01:07:03;;;;;;;23.42;12.13;;;;;;;10.65;48.98;99973.92;1830013;78;21153;-74
2021/10/23 01:09:38;;;;;;;15.80;8.73;;;;;;;10.54;49.32;99976.75;1829401;78;21169;-74
2021/10/23 01:12:11;;;;;;;17.17;7.47;;;;;;;10.49;49.39;99972.42;1829590;78;21656;-73
2021/10/23 01:14:41;;;;;;;12.37;7.62;;;;;;;10.44;49.86;99974.41;1829523;78;21636;-73
2021/10/23 01:17:10;;;;;;;14.78;8.78;;;;;;;10.36;50.45;99971.83;1829539;78;21609;-74
2021/10/23 01:19:40;;;;;;;17.30;8.00;;;;;;;10.26;50.71;99971.39;1829455;78;21138;-74
2021/10/23 01:22:09;;;;;;;11.10;4.83;;;;;;;10.20;50.91;99977.69;1829812;78;21126;-73
2021/10/23 01:24:37;;;;;;;10.60;4.78;;;;;;;10.17;50.49;99978.91;1829685;78;21460;-73
2021/10/23 01:27:06;;;;;;;12.90;5.15;;;;;;;10.12;50.38;99974.58;1829402;78;21109;-73
2021/10/23 01:29:34;;;;;;;8.63;4.83;;;;;;;10.11;50.26;99985.73;1829489;78;21149;-74
2021/10/23 01:32:03;;;;;;;15.03;8.60;;;;;;;10.11;50.31;99985.73;1829375;78;21130;-75
2021/10/23 01:34:31;;;;;;;14.83;9.10;;;;;;;10.12;50.15;99984.16;1806029;78;21142;-74
2021/10/23 01:37:00;;;;;;;15.85;11.03;;;;;;;10.14;50.00;99988.90;1789895;80;21558;-74
2021/10/23 01:39:32;;;;;;;16.65;11.68;;;;;;;10.13;49.87;99982.27;1789522;79;21304;-75
2021/10/23 01:42:00;;;;;;;17.35;10.13;;;;;;;10.09;49.92;99977.72;1789903;80;21229;-74
2021/10/23 01:44:34;;;;;;;20.72;8.73;;;;;;;10.07;49.93;99979.82;1789770;79;21118;-73
2021/10/23 01:47:03;;;;;;;15.13;7.10;;;;;;;10.04;49.97;99976.65;1789786;78;21134;-75
2021/10/23 01:49:32;;;;;;;15.35;5.80;;;;;;;9.99;50.10;99974.52;1789580;78;21333;-74
2021/10/23 01:52:00;;;;;;;10.72;5.03;;;;;;;9.95;50.17;99972.41;1789759;78;21166;-74
2021/10/23 01:54:29;;;;;;;15.40;5.55;;;;;;;9.91;50.21;99971.13;1789500;79;21142;-73
2021/10/23 01:56:57;;;;;;;11.50;4.78;;;;;;;9.86;50.34;99969.00;1789835;78;21130;-73
2021/10/23 01:59:28;;;;;;;10.88;4.40;;;;;;;9.87;50.34;99972.58;1789777;78;21119;-74
2021/10/23 02:01:56;;;;;;;13.38;4.55;;;;;;;9.86;50.40;99969.00;1789697;80;21146;-74
2021/10/23 02:04:25;;;;;;;13.05;4.67;;;;;;;9.84;50.40;99966.47;1789586;78;21185;-73
2021/10/23 02:06:54;;;;;;;15.85;4.92;;;;;;;9.84;50.45;99978.78;1789822;80;21138;-73
2021/10/23 02:09:22;;;;;;;12.60;4.42;;;;;;;9.82;50.43;99971.81;1789158;78;21795;-74
2021/10/23 02:11:51;;;;;;;13.80;5.37;;;;;;;9.74;50.55;99971.95;1789903;80;22126;-73
2021/10/23 02:14:20;;;;;;;13.18;5.50;;;;;;;9.69;50.83;99976.67;1789778;79;21326;-72
2021/10/23 02:16:48;;;;;;;13.08;5.50;;;;;;;9.63;50.94;99977.48;1789745;78;21150;-74
2021/10/23 02:19:19;;;;;;;12.03;5.50;;;;;;;9.60;51.00;99975.67;1789657;79;21647;-75
2021/10/23 02:21:47;;;;;;;13.13;5.25;;;;;;;9.58;51.04;99974.51;1789700;80;21091;-72
2021/10/23 02:24:16;;;;;;;12.07;5.10;;;;;;;9.58;50.98;99967.67;1789870;78;21165;-74
2021/10/23 02:26:44;;;;;;;14.13;4.62;;;;;;;9.56;51.04;99968.91;1789883;80;21123;-75
2021/10/23 02:29:13;;;;;;;10.45;4.47;;;;;;;9.53;51.13;99968.80;1789754;79;21149;-74
2021/10/23 02:31:42;;;;;;;11.12;4.97;;;;;;;9.51;51.14;99974.47;1789730;78;21562;-77
2021/10/23 02:34:10;;;;;;;9.88;4.58;;;;;;;9.52;51.18;99980.78;1789885;78;21111;-74
2021/10/23 02:36:39;;;;;;;14.03;5.20;;;;;;;9.53;51.22;99983.84;1790225;78;21126;-73
2021/10/23 02:39:07;;;;;;;12.23;5.20;;;;;;;9.53;51.19;99994.25;1789962;79;21158;-73
2021/10/23 02:41:36;;;;;;;11.83;5.22;;;;;;;9.53;51.24;99994.78;1789831;80;21253;-75
2021/10/23 02:44:06;;;;;;;9.98;5.00;;;;;;;9.54;51.25;99997.83;1789823;80;21288;-73
2021/10/23 02:46:35;;;;;;;10.28;4.50;;;;;;;9.51;51.27;100005.08;1789705;80;21157;-74
2021/10/23 02:49:07;;;;;;;9.20;4.78;;;;;;;9.47;51.40;100003.27;1789937;80;21566;-76
2021/10/23 02:51:35;;;;;;;10.40;4.85;;;;;;;9.48;51.49;99998.64;1789732;78;21173;-73
2021/10/23 02:54:05;;;;;;;13.18;4.55;;;;;;;9.50;51.50;100004.75;1789837;79;21119;-73
2021/10/23 02:56:34;;;;;;;9.50;4.17;;;;;;;9.49;51.54;100001.70;1789935;80;21566;-74
2021/10/23 02:59:02;;;;;;;9.28;4.25;;;;;;;9.46;51.53;100003.46;1789755;78;21207;-74
2021/10/23 03:01:32;;;;;;;9.38;4.47;;;;;;;9.46;51.60;99993.89;1789770;78;21245;-75
2021/10/23 03:04:02;;;;;;;10.15;4.25;;;;;;;9.45;51.58;99997.15;1789890;80;21107;-74
2021/10/23 03:09:22;;;;;;;9.73;3.87;;;;;;;9.35;51.74;99995.81;1791317;79;21106;-73
2021/10/23 03:11:51;;;;;;;10.95;4.42;;;;;;;9.24;51.96;100001.83;1789862;79;21146;-73
2021/10/23 03:14:20;;;;;;;9.80;4.28;;;;;;;9.23;52.06;99997.41;1789777;80;21122;-72
2021/10/23 03:16:50;;;;;;;10.88;4.40;;;;;;;9.18;52.08;99998.85;1789857;78;21539;-74
2021/10/23 03:19:20;;;;;;;9.98;4.70;;;;;;;9.11;52.15;99993.86;1789735;79;21111;-74
2021/10/23 03:21:49;;;;;;;11.38;4.60;;;;;;;9.06;52.32;99994.09;1789829;80;21264;-74
2021/10/23 03:24:18;;;;;;;11.93;4.97;;;;;;;9.08;52.37;99995.59;1789757;80;21701;-75
2021/10/23 03:26:48;;;;;;;11.40;4.80;;;;;;;9.08;52.26;99994.74;1789787;78;21147;-73
2021/10/23 03:29:18;;;;;;;12.53;4.92;;;;;;;9.08;52.25;99997.47;1789716;79;21298;-76
2021/10/23 03:31:48;;;;;;;11.28;5.30;;;;;;;9.02;52.20;99991.44;1789727;78;21178;-75
2021/10/23 03:34:17;;;;;;;17.37;7.83;;;;;;;8.98;52.37;99984.67;1789692;78;21574;-73
2021/10/23 03:36:46;;;;;;;16.25;7.08;;;;;;;8.98;52.31;99985.52;1789846;79;21078;-73
2021/10/23 03:39:15;;;;;;;14.83;7.17;;;;;;;8.97;52.30;99981.62;1790194;78;21154;-74
2021/10/23 03:41:43;;;;;;;13.60;6.42;;;;;;;8.93;52.20;99985.78;1789780;79;21166;-73
2021/10/23 03:44:12;;;;;;;9.95;5.08;;;;;;;8.95;52.17;99979.61;1789608;79;21138;-73
2021/10/23 03:46:41;;;;;;;9.10;4.40;;;;;;;8.99;51.90;99989.94;1790042;80;21527;-74
2021/10/23 03:49:09;;;;;;;17.48;5.03;;;;;;;9.00;51.62;99982.07;1789690;78;21593;-75
2021/10/23 03:51:38;;;;;;;10.68;4.22;;;;;;;9.00;51.39;99986.16;1789776;79;21182;-72
2021/10/23 03:54:07;;;;;;;15.68;4.85;;;;;;;9.02;51.30;99983.23;1789906;79;21654;-76
2021/10/23 03:56:38;;;;;;;12.47;4.75;;;;;;;9.05;51.12;99989.15;1789751;78;21139;-73
2021/10/23 03:59:06;;;;;;;14.07;5.72;;;;;;;9.06;50.78;99988.63;1789770;79;22021;-74
2021/10/23 04:01:35;;;;;;;9.35;4.40;;;;;;;9.04;50.81;99985.25;1789750;80;21261;-73
2021/10/23 04:04:04;;;;;;;11.78;4.35;;;;;;;9.05;50.78;99992.41;1789954;78;21095;-75
2021/10/23 04:06:35;;;;;;;9.65;4.40;;;;;;;9.03;50.68;99991.23;1789746;80;21122;-74
2021/10/23 04:09:04;;;;;;;14.13;4.83;;;;;;;9.03;50.64;99989.88;1789672;78;21169;-73
2021/10/23 04:11:33;;;;;;;17.23;7.50;;;;;;;9.04;50.51;99987.46;1789982;79;21624;-75
2021/10/23 04:14:03;;;;;;;23.60;8.98;;;;;;;9.03;50.50;99998.06;1789762;80;21078;-74
2021/10/23 04:16:33;;;;;;;14.18;6.95;;;;;;;9.02;50.48;100001.84;1789754;78;21138;-72
2021/10/23 04:19:04;;;;;;;18.15;7.78;;;;;;;9.02;50.31;99999.11;1789608;78;21114;-74
2021/10/23 04:21:32;;;;;;;12.45;5.60;;;;;;;9.04;50.38;99994.30;1789558;78;21526;-74
2021/10/23 04:24:02;;;;;;;11.93;5.22;;;;;;;9.07;50.20;99988.43;1789793;78;21091;-74
2021/10/23 04:26:32;;;;;;;14.53;6.60;;;;;;;9.07;49.97;99994.42;1789638;80;21079;-74
2021/10/23 04:29:00;;;;;;;15.18;5.17;;;;;;;9.06;50.07;99992.73;1789807;80;21192;-73
2021/10/23 04:31:29;;;;;;;9.60;4.10;;;;;;;9.06;49.90;100002.30;1766430;80;21222;-74
2021/10/23 04:33:58;;;;;;;12.53;4.62;;;;;;;9.06;49.93;99996.83;1789685;79;21202;-74
2021/10/23 04:36:27;;;;;;;16.55;5.08;;;;;;;9.08;49.82;99997.47;1789861;78;21157;-73
2021/10/23 04:38:55;;;;;;;13.45;5.33;;;;;;;9.10;49.80;100008.56;1789844;80;21158;-73
2021/10/23 04:41:25;;;;;;;12.90;4.87;;;;;;;9.07;49.68;100006.20;1789804;79;21249;-72
2021/10/23 04:43:53;;;;;;;12.75;5.12;;;;;;;9.04;49.68;100014.79;1789823;78;21123;-73
2021/10/23 04:46:23;;;;;;;17.48;6.12;;;;;;;9.04;49.76;100018.05;1730263;81;21135;-73
2021/10/23 04:48:53;;;;;;;14.78;6.90;;;;;;;9.02;49.69;100019.61;1730432;82;21182;-73
2021/10/23 04:51:21;;;;;;;12.18;5.65;;;;;;;9.04;49.69;100022.98;1730179;83;21281;-75
2021/10/23 04:53:50;;;;;;;12.23;5.17;;;;;;;9.03;49.65;100037.69;1730328;83;21147;-75
2021/10/23 04:56:19;;;;;;;13.20;6.87;;;;;;;8.98;49.67;100033.34;1730537;83;21127;-75
2021/10/23 04:58:48;;;;;;;11.03;6.03;;;;;;;8.97;49.73;100035.75;1730301;83;21154;-75
2021/10/23 05:01:17;;;;;;;19.27;7.47;;;;;;;8.95;49.78;100037.83;1730205;82;21163;-74
2021/10/23 05:03:46;;;;;;;16.25;7.45;;;;;;;8.94;49.91;100032.04;1740504;80;21613;-73
2021/10/23 05:06:15;;;;;;;31.25;7.10;;;;;;;8.97;49.92;100030.80;1789810;80;21111;-73
2021/10/23 05:08:43;;;;;;;9.30;4.80;;;;;;;8.95;49.88;100032.89;1789705;80;21550;-75
2021/10/23 05:11:12;;;;;;;11.80;4.22;;;;;;;8.98;49.79;100037.95;1789772;78;21182;-77
2021/10/23 05:13:41;;;;;;;10.60;5.42;;;;;;;8.98;49.70;100038.80;1789686;79;21271;-74
2021/10/23 05:16:09;;;;;;;11.38;6.17;;;;;;;9.00;49.67;100039.45;1789706;79;21288;-74
2021/10/23 05:18:39;;;;;;;10.53;5.00;;;;;;;8.98;49.81;100045.63;1789748;78;21232;-76
2021/10/23 05:21:09;;;;;;;11.25;5.30;;;;;;;8.97;49.70;100045.31;1789806;79;21143;-73
2021/10/23 05:23:39;;;;;;;16.60;5.47;;;;;;;8.99;49.75;100057.41;1789969;80;21205;-75
2021/10/23 05:26:08;;;;;;;12.13;5.08;;;;;;;9.02;49.68;100055.13;1789804;79;21338;-74
2021/10/23 05:28:37;;;;;;;12.47;5.58;;;;;;;9.05;49.52;100052.53;1789745;79;21102;-77
2021/10/23 05:31:06;;;;;;;14.63;5.42;;;;;;;9.06;49.37;100054.22;1789945;78;21178;-73
2021/10/23 05:33:35;;;;;;;11.03;4.85;;;;;;;9.05;49.46;100057.98;1789773;80;21146;-76
2021/10/23 05:36:04;;;;;;;10.20;4.47;;;;;;;9.04;49.45;100068.59;1789723;79;21114;-74
2021/10/23 05:38:33;;;;;;;10.65;3.83;;;;;;;9.06;49.28;100065.99;1789843;79;21154;-75
2021/10/23 05:41:04;;;;;;;10.58;4.17;;;;;;;9.07;49.24;100070.42;1789707;80;21253;-74
2021/10/23 05:43:32;;;;;;;13.28;4.30;;;;;;;9.04;49.26;100070.81;1789744;78;21099;-74
2021/10/23 05:46:01;;;;;;;13.80;4.45;;;;;;;9.04;49.29;100076.28;1789832;80;21106;-76
2021/10/23 05:48:30;;;;;;;15.08;4.25;;;;;;;9.03;49.27;100077.84;1789774;79;21126;-76
2021/10/23 05:51:01;;;;;;;11.30;4.67;;;;;;;9.03;49.33;100080.57;1789732;80;21244;-75
2021/10/23 05:53:30;;;;;;;12.07;4.15;;;;;;;9.06;49.24;100083.76;1789878;80;21166;-74
2021/10/23 05:55:58;;;;;;;12.68;6.78;;;;;;;9.06;49.30;100091.95;1789792;80;21296;-75
2021/10/23 05:58:29;;;;;;;14.83;7.00;;;;;;;9.05;49.33;100088.90;1789816;78;21161;-75
2021/10/23 06:01:05;;;;;;;13.03;6.10;;;;;;;9.05;49.41;100083.95;1789805;79;21158;-75
2021/10/23 06:03:32;;;;;;;11.55;5.30;;;;;;;9.04;49.52;100084.47;1789715;80;21170;-73
2021/10/23 06:06:03;;;;;;;11.10;4.95;;;;;;;9.04;49.57;100083.11;1789684;78;21134;-75
2021/10/23 06:08:32;;;;;;;10.50;4.50;;;;;;;9.08;49.56;100092.61;1789992;78;21658;-76
2021/10/23 06:11:02;;;;;;;13.10;4.78;;;;;;;9.11;49.57;100092.77;1789737;78;21122;-77
2021/10/23 06:13:32;;;;;;;8.88;3.45;;;;;;;9.12;49.55;100093.09;1789822;80;21123;-75
2021/10/23 06:16:01;;;;;;;13.43;4.70;;;;;;;9.14;49.29;100093.74;1790092;79;21157;-74
2021/10/23 06:18:32;;;;;;;8.85;3.30;;;;;;;9.17;49.00;100088.73;1789888;78;21134;-75
2021/10/23 06:21:03;;;;;;;10.18;3.30;;;;;;;9.20;48.93;100092.44;1789585;78;21592;-76
2021/10/23 06:23:33;;;;;;;10.85;3.58;;;;;;;9.24;48.94;100098.88;1789905;79;21554;-73
2021/10/23 06:26:02;;;;;;;13.60;3.92;;;;;;;9.26;48.77;100104.99;1790014;78;21576;-74
2021/10/23 06:28:36;;;;;;;9.18;3.42;;;;;;;9.27;48.70;100103.43;1789776;79;21178;-76
2021/10/23 06:31:05;;;;;;;13.28;4.95;;;;;;;9.30;48.69;100103.04;1750389;81;21206;-76
2021/10/23 06:33:34;;;;;;;9.65;3.45;;;;;;;9.33;48.74;100116.83;1750320;82;21157;-74
2021/10/23 06:36:04;;;;;;;10.15;3.85;;;;;;;9.36;48.48;100108.23;1772572;81;21159;-75
2021/10/23 06:38:34;;;;;;;10.28;3.00;;;;;;;9.38;48.41;100110.25;1775040;81;21104;-75
2021/10/23 06:41:05;;;;;;;10.95;3.60;;;;;;;9.38;48.38;100113.83;1774990;81;21112;-74
2021/10/23 06:43:34;;;;;;;13.15;3.98;;;;;;;9.43;48.39;100115.97;1775226;81;21175;-74
2021/10/23 06:46:03;;;;;;;10.72;3.60;;;;;;;9.45;48.19;100116.62;1775044;81;21152;-73
2021/10/23 06:48:32;;;;;;;10.20;3.50;;;;;;;9.51;48.16;100117.20;1784969;79;21246;-75
2021/10/23 06:51:01;;;;;;;13.93;3.85;;;;;;;9.54;47.98;100119.02;1823656;79;21122;-73
2021/10/23 06:53:30;;;;;;;12.60;3.50;;;;;;;9.57;48.03;100113.67;1823590;78;21163;-75
2021/10/23 06:56:00;;;;;;;9.05;3.37;;;;;;;9.61;47.87;100125.91;1823751;79;21157;-75
2021/10/23 06:58:31;;;;;;;11.22;3.45;;;;;;;9.64;47.78;100121.94;1823670;79;21177;-76
2021/10/23 07:01:00;;;;;;;17.80;4.60;;;;;;;9.66;47.67;100111.11;1823696;79;21635;-74
2021/10/23 07:03:29;;;;;;;9.30;3.20;;;;;;;9.68;47.67;100113.12;1823679;78;21110;-74
2021/10/23 07:06:01;;;;;;;10.88;3.35;;;;;;;9.71;47.58;100110.00;1823806;79;21189;-75
2021/10/23 07:08:32;;;;;;;11.35;2.95;;;;;;;9.75;47.56;100120.02;1823638;78;21647;-76
2021/10/23 07:11:01;;;;;;;10.50;2.95;;;;;;;9.78;47.52;100116.91;1823767;79;21647;-74
2021/10/23 07:13:32;;;;;;;8.60;3.12;;;;;;;9.80;47.30;100116.19;1823580;79;21137;-74
2021/10/23 07:16:02;;;;;;;10.40;3.60;;;;;;;9.81;47.34;100115.99;1823755;79;21118;-74
2021/10/23 07:18:31;;;;;;;13.30;3.60;;;;;;;9.88;47.23;100131.61;1823330;78;21526;-74
2021/10/23 07:21:01;;;;;;;10.15;3.58;;;;;;;9.92;46.91;100140.59;1824290;78;21101;-72
2021/10/23 07:23:30;;;;;;;10.68;2.67;;;;;;;9.98;46.82;100145.78;1824277;78;21130;-73
2021/10/23 07:25:59;;;;;;;12.63;2.98;;;;;;;10.03;46.54;100146.03;1823700;79;21154;-74
2021/10/23 07:28:29;;;;;;;14.93;3.95;;;;;;;10.08;46.59;100147.64;1823684;78;21149;-75
2021/10/23 07:30:59;;;;;;;12.05;3.08;;;;;;;10.12;46.42;100139.34;1823722;79;21130;-74
2021/10/23 07:33:29;;;;;;;7.92;2.60;;;;;;;10.17;46.25;100138.22;1823632;78;21695;-75
2021/10/23 07:36:00;;;;;;;11.90;2.67;;;;;;;10.34;45.85;100136.03;1807779;78;21562;-75
2021/10/23 07:38:29;;;;;;;8.08;2.98;;;;;;;10.67;45.66;100134.84;1798191;80;21241;-75
2021/10/23 07:40:58;;;;;;;10.20;2.50;;;;;;;11.11;44.69;100135.22;1798127;79;21263;-74
2021/10/23 07:43:28;;;;;;;8.13;2.95;;;;;;;11.52;43.52;100136.11;1798110;80;21336;-74
2021/10/23 07:45:57;;;;;;;7.65;2.37;;;;;;;11.94;43.15;100152.20;1797896;80;21307;-75
2021/10/23 07:48:27;;;;;;;9.10;2.47;;;;;;;12.39;42.12;100150.98;1798338;79;21217;-75
2021/10/23 07:50:55;;;;;;;10.95;2.62;;;;;;;12.76;41.31;100142.50;1798124;80;21240;-74
2021/10/23 07:53:24;;;;;;;11.78;3.12;;;;;;;12.98;40.90;100156.25;1798027;80;21201;-77
2021/10/23 07:55:54;;;;;;;18.90;3.30;;;;;;;13.19;40.12;100157.04;1794231;78;21067;-78
2021/10/23 07:58:23;;;;;;;9.25;2.45;;;;;;;13.36;39.70;100155.45;1784953;80;21209;-77
2021/10/23 08:03:57;;;;;;;8.00;2.30;;;;;;;13.60;38.92;100140.88;1783346;80;21188;-77
2021/10/23 08:12:17;;;;;;;11.97;2.77;;;;;;;13.49;39.49;100148.48;1797908;80;21121;-78
2021/10/23 08:14:47;;;;;;;7.60;2.02;;;;;;;13.54;39.56;100153.31;1797971;80;21632;-78
2021/10/23 08:17:16;;;;;;;3.77;1.80;;;;;;;13.54;39.38;100166.54;1797905;79;21129;-79
2021/10/23 08:19:45;;;;;;;7.70;2.00;;;;;;;13.55;39.00;100184.74;1798346;79;21110;-78
2021/10/23 08:22:14;;;;;;;8.95;2.00;;;;;;;13.43;38.54;100193.41;1798127;80;21165;-78
2021/10/23 08:24:45;;;;;;;9.58;1.95;;;;;;;13.20;38.78;100192.58;1797869;80;21627;-79
2021/10/23 08:27:15;;;;;;;7.05;1.87;;;;;;;13.05;38.91;100193.91;1797944;80;21145;-79
2021/10/23 08:29:47;;;;;;;8.70;1.80;;;;;;;12.86;39.35;100197.02;1797935;80;21189;-79
2021/10/23 08:32:16;;;;;;;7.37;2.47;;;;;;;12.78;39.84;100202.23;1798025;79;21663;-84
2021/10/23 08:34:44;;;;;;;10.65;2.20;;;;;;;12.70;39.90;100206.07;1798061;80;21196;-79
2021/10/23 08:37:13;;;;;;;8.95;2.10;;;;;;;12.61;40.26;100212.02;1797962;79;21209;-76
2021/10/23 08:40:04;;;;;;;5.90;2.00;;;;;;;12.49;40.70;100206.87;1798132;79;21772;-79
2021/10/23 08:42:33;;;;;;;12.45;2.58;;;;;;;12.47;40.96;100208.98;1798111;80;21173;-77
2021/10/23 08:45:08;;;;;;;6.00;2.17;;;;;;;12.38;41.23;100213.34;1798113;80;21558;-77
2021/10/23 08:47:40;;;;;;;8.10;2.62;;;;;;;12.36;41.35;100211.33;1797967;80;21094;-76
2021/10/23 08:50:20;;;;;;;9.85;2.70;;;;;;;12.36;41.56;100217.36;1798072;80;21192;-77
2021/10/23 08:53:04;;;;;;;4.00;1.90;;;;;;;12.35;41.58;100211.52;1798405;79;21635;-77
2021/10/23 08:55:31;;;;;;;7.33;2.40;;;;;;;12.29;41.47;100223.36;1798247;79;21157;-78
2021/10/23 08:58:03;;;;;;;8.30;2.30;;;;;;;12.23;41.62;100215.44;1798006;80;21102;-77
2021/10/23 09:00:41;;;;;;;8.08;2.50;;;;;;;12.19;41.42;100224.33;1798008;79;21661;-77
2021/10/23 09:06:40;;;;;;;5.60;2.22;;;;;;;12.22;41.59;100245.88;1798107;79;21137;-77
2021/10/23 09:09:18;;;;;;;6.22;1.95;;;;;;;12.23;41.17;100236.05;1797940;79;21126;-76
2021/10/23 09:11:58;;;;;;;5.05;1.87;;;;;;;12.14;41.17;100237.84;1766533;80;21303;-78
2021/10/23 09:14:34;;;;;;;6.50;1.72;;;;;;;12.08;41.45;100236.80;1782625;80;21483;-79
2021/10/23 09:17:11;;;;;;;5.40;2.00;;;;;;;12.05;41.55;100247.67;1798453;79;21121;-79
2021/10/23 09:19:46;;;;;;;5.70;1.87;;;;;;;12.03;41.32;100266.27;1798227;80;21102;-77
2021/10/23 09:22:38;;;;;;;4.85;1.60;;;;;;;11.94;41.48;100259.81;1798180;80;21671;-79
2021/10/23 09:25:26;;;;;;;8.75;2.20;;;;;;;11.87;41.55;100257.06;1797991;80;21177;-78
2021/10/23 09:30:56;;;;;;;9.28;1.98;;;;;;;11.81;41.74;100244.70;1798102;79;21259;-77
2021/10/23 09:33:31;;;;;;;6.00;1.82;;;;;;;11.83;41.97;100233.83;1766299;80;21126;-79
2021/10/23 09:36:04;;;;;;;7.78;2.20;;;;;;;11.95;41.97;100231.30;1796293;78;21168;-77
2021/10/23 09:38:41;;;;;;;4.58;1.60;;;;;;;12.08;41.52;100234.05;1788565;80;21253;-78
2021/10/23 09:41:25;;;;;;;5.75;1.92;;;;;;;12.18;41.44;100240.48;1788399;80;21133;-77
2021/10/23 09:44:17;;;;;;;6.42;1.80;;;;;;;12.28;41.16;100241.74;1788364;79;21627;-77
2021/10/23 09:46:56;;;;;;;4.42;1.55;;;;;;;12.34;40.84;100245.02;1788300;80;21184;-76
2021/10/23 09:49:31;;;;;;;9.55;2.33;;;;;;;12.40;40.66;100237.01;1788296;80;21184;-78
2021/10/23 09:52:19;;;;;;;6.28;1.85;;;;;;;12.45;40.52;100241.33;1788185;80;21593;-78
2021/10/23 09:57:32;;;;;;;6.75;1.50;;;;;;;12.53;40.71;100239.73;1762074;80;21183;-78
2021/10/23 10:02:57;;;;;;;6.30;1.90;;;;;;;12.54;40.01;100250.52;1788332;80;21135;-77
2021/10/23 10:05:33;;;;;;;8.20;1.70;;;;;;;12.47;40.06;100251.58;1788203;80;21618;-76
2021/10/23 10:14:35;;;;;;;6.80;1.67;;;;;;;12.41;40.48;100255.19;1710238;83;21093;-77
2021/10/23 10:17:05;;;;;;;9.53;1.95;;;;;;;12.40;40.56;100254.88;1694649;85;21144;-75
2021/10/23 10:19:36;;;;;;;6.60;1.52;;;;;;;12.34;40.43;100271.12;1694254;85;21113;-75
2021/10/23 10:22:08;;;;;;;5.53;1.90;;;;;;;12.27;40.08;100263.94;1694459;85;21117;-76
2021/10/23 10:24:56;;;;;;;6.50;2.70;;;;;;;12.16;40.35;100261.30;1694379;85;21264;-76
2021/10/23 10:27:27;;;;;;;6.03;1.60;;;;;;;12.17;40.63;100254.75;1729058;80;21606;-77
2021/10/23 10:30:23;;;;;;;5.53;1.62;;;;;;;12.27;40.41;100248.83;1738591;80;21168;-77
2021/10/23 10:33:35;;;;;;;7.85;1.70;;;;;;;12.31;40.58;100263.83;1787831;80;21081;-77
2021/10/23 10:38:58;;;;;;;4.40;1.47;;;;;;;12.44;40.23;100269.88;1788317;80;21240;-77
2021/10/23 10:44:18;;;;;;;11.08;2.20;;;;;;;12.45;38.52;100268.28;1723275;83;21455;-69
2021/10/23 10:47:11;;;;;;;6.62;1.60;;;;;;;12.38;37.95;100271.56;1723527;83;21106;-75
2021/10/23 10:49:55;;;;;;;4.90;1.30;;;;;;;12.34;37.52;100272.48;1723061;83;21189;-75
2021/10/23 10:52:50;;;;;;;3.90;1.72;;;;;;;12.26;37.66;100283.70;1723167;83;21574;-76
2021/10/23 10:55:20;;;;;;;5.67;2.00;;;;;;;12.24;37.36;100283.06;1722878;83;21152;-75
2021/10/23 11:01:21;;;;;;;4.97;1.60;;;;;;;12.25;37.23;100290.25;1788435;80;21190;-79
2021/10/23 11:04:11;;;;;;;5.47;1.60;;;;;;;12.19;37.22;100291.09;1693559;84;22126;-78
2021/10/23 11:06:52;;;;;;;5.92;1.50;;;;;;;12.13;37.22;100284.22;1693705;83;21116;-77
2021/10/23 11:09:30;;;;;;;7.00;1.90;;;;;;;12.07;37.64;100287.28;1694313;85;21566;-77
2021/10/23 11:12:16;;;;;;;5.25;1.40;;;;;;;12.04;37.76;100288.55;1693883;85;21242;-76
2021/10/23 11:14:47;;;;;;;9.78;1.62;;;;;;;12.10;37.25;100288.23;1701412;84;21139;-76
2021/10/23 11:17:21;;;;;;;4.53;1.45;;;;;;;12.20;36.78;100277.67;1649658;87;21217;-76
2021/10/23 11:20:01;;;;;;;4.45;1.50;;;;;;;12.32;35.65;100274.60;1649969;87;21171;-78
2021/10/23 11:22:40;;;;;;;6.92;1.67;;;;;;;12.44;35.41;100284.98;1710169;81;21272;-74
2021/10/23 11:25:15;;;;;;;5.03;1.30;;;;;;;12.54;35.38;100289.52;1735244;81;21541;-77
2021/10/23 11:27:51;;;;;;;8.13;1.70;;;;;;;12.65;35.52;100281.47;1735598;82;21578;-79
2021/10/23 11:30:31;;;;;;;6.90;2.00;;;;;;;12.75;35.68;100282.39;1735666;82;21177;-78
2021/10/23 11:33:06;;;;;;;5.87;2.05;;;;;;;12.79;35.69;100286.94;1735349;82;21229;-79
2021/10/23 11:35:45;;;;;;;4.30;1.30;;;;;;;12.79;35.14;100303.44;1771722;79;21109;-79
2021/10/23 11:38:24;;;;;;;6.50;1.80;;;;;;;12.69;34.88;100295.09;1798658;79;21292;-76
2021/10/23 11:40:57;;;;;;;6.30;1.47;;;;;;;12.60;35.11;100305.16;1798241;79;21197;-79
2021/10/23 11:43:32;;;;;;;9.18;2.00;;;;;;;12.53;35.42;100300.20;1797844;79;21220;-80
2021/10/23 11:46:05;;;;;;;7.25;2.20;;;;;;;12.50;33.77;100296.50;1802334;78;21114;-83
2021/10/23 11:48:33;;;;;;;8.23;1.62;;;;;;;12.48;34.30;100305.48;1828476;78;21149;-83
2021/10/23 11:51:02;;;;;;;6.72;1.98;;;;;;;12.53;34.44;100301.57;1827778;78;21220;-79
2021/10/23 11:53:32;;;;;;;6.35;1.27;;;;;;;12.58;33.49;100314.14;1828434;78;21138;-79
2021/10/23 11:56:09;;;;;;;5.45;1.32;;;;;;;12.54;32.76;100323.88;1814832;79;21275;-76
2021/10/23 11:58:41;;;;;;;7.72;1.40;;;;;;;12.41;33.31;100332.13;1814508;79;21121;-77
2021/10/23 12:01:20;;;;;;;4.92;1.00;;;;;;;12.29;33.76;100338.74;1808699;79;21139;-75
2021/10/23 12:03:51;;;;;;;5.28;1.42;;;;;;;12.17;38.44;100334.41;1807235;79;21247;-78
2021/10/23 12:06:23;;;;;;;12.10;1.80;;;;;;;12.06;36.31;100345.48;1776507;79;21092;-79
2021/10/23 12:09:15;;;;;;;1.57;0.85;;;;;;;12.04;38.00;100335.77;1807483;79;21147;-80
2021/10/23 12:11:44;;;;;;;5.95;2.20;;;;;;;12.06;35.64;100337.77;1815779;79;21151;-78
2021/10/23 12:14:15;;;;;;;2.67;1.30;;;;;;;12.03;35.60;100338.19;1814926;79;21103;-76
2021/10/23 12:16:47;;;;;;;5.30;1.10;;;;;;;12.01;35.61;100331.53;1814896;79;21159;-77
2021/10/23 12:19:40;;;;;;;3.95;1.17;;;;;;;12.05;35.24;100342.95;1814772;78;21162;-79
2021/10/23 12:22:14;;;;;;;3.33;1.35;;;;;;;12.05;35.34;100342.95;1814541;79;21182;-78
2021/10/23 12:24:46;;;;;;;4.50;1.50;;;;;;;12.00;35.57;100339.98;1814374;78;21606;-78
2021/10/23 12:27:28;;;;;;;6.83;1.50;;;;;;;12.01;35.29;100335.66;1814754;79;21210;-77